Oark, AR

1:29 AM CST on December 19, 2014 (GMT -0600)
Pettigrew | Change Station
CLOSE
Current Station
Personal Weather Station
Location: Pettigrew, AR
Elevation: 1873 ft
Nearby Weather Stations

Elev 1873 ft 35.82 °N, 93.64 °W | Updated 4 minutes ago

Overcast
Overcast
38.1 °F
Feels Like 38 °F
N
0.0
Wind Variable Wind from NE

Today
High -- | Low -- °F
--% Chance of Precip.
Yesterday
High -- | Low -- °F
Precip. -- in
7:19 AM 5:03 PM
Waning Crescent, 9% visible
Pressure 30.21 in
Visibility 4.0 miles
Clouds Overcast 500 ft
Windchill 38 °F
Dew Point 38 °F
Humidity 99%
Rainfall 0.00 in
Snow Depth Not available.
UV 0 out of 12
Pollen 4.40 out of 12
Air Quality Not available.
Flu Activity Not available.
METAR KFYV 190653Z AUTO 00000KT 4SM BR OVC005 04/04 A3020 RMK AO2 SLP230 T00440039

More Conditions Fewer Conditions

Pressure 30.21 in
Visibility 4.0 miles
Clouds Overcast 500 ft
Windchill 38 °F
Dew Point 38 °F
Humidity 99%
Rainfall 0.00 in
Snow Depth Not available.
UV 0 out of 12
Pollen 4.40 out of 12
Air Quality Not available.
Flu Activity Not available.
METAR KFYV 190653Z AUTO 00000KT 4SM BR OVC005 04/04 A3020 RMK AO2 SLP230 T00440039

More Conditions Fewer Conditions

10-Day Weather Forecast

Almanac

Astronomy

Dec. 19, 2014 Rise Set
Actual Time
Civil Twilight
Nautical Twilight
Astronomical Twilight
Moon
Length of Visible Light
Length of Day
Tomorrow will be .
, % of the Moon is Illuminated

Today's Extremes

State Highs State Lows

Community

WunderPhotos

Upload Photos

1,778,952 photos uploaded!

WunderBlogs® & News

Nearby

Air Quality

  Air Quality AQ Index Pollutant
Not available.

Snow Depth

Station Depth Elevation

Earthquake Activity

City Distance Mag. Time & Date
Minimum magnitude displayed is 2.5.

Coastal Water Temperatures

Place Temperature

Nearby Weather Stations